sensor_id;sensor_type;location;lat;lon;timestamp;P1;durP1;ratioP1;P2;durP2;ratioP2
13040;SDS011;6587;42.728;23.288;2022-07-17T00:01:11;6.25;;;4.18;;
13040;SDS011;6587;42.728;23.288;2022-07-17T00:03:38;4.43;;;3.92;;
13040;SDS011;6587;42.728;23.288;2022-07-17T00:06:06;10.50;;;4.10;;
13040;SDS011;6587;42.728;23.288;2022-07-17T00:08:33;11.13;;;4.60;;
13040;SDS011;6587;42.728;23.288;2022-07-17T00:11:00;8.35;;;3.95;;
13040;SDS011;6587;42.728;23.288;2022-07-17T00:13:28;5.90;;;4.20;;
13040;SDS011;6587;42.728;23.288;2022-07-17T00:15:55;7.40;;;4.55;;
13040;SDS011;6587;42.728;23.288;2022-07-17T00:18:22;5.30;;;4.10;;
13040;SDS011;6587;42.728;23.288;2022-07-17T00:20:49;4.72;;;4.20;;
13040;SDS011;6587;42.728;23.288;2022-07-17T00:23:16;4.20;;;3.80;;
13040;SDS011;6587;42.728;23.288;2022-07-17T00:25:43;5.65;;;4.20;;
13040;SDS011;6587;42.728;23.288;2022-07-17T00:28:11;4.28;;;3.70;;
13040;SDS011;6587;42.728;23.288;2022-07-17T00:30:40;5.13;;;3.80;;
13040;SDS011;6587;42.728;23.288;2022-07-17T00:33:07;5.73;;;3.83;;
13040;SDS011;6587;42.728;23.288;2022-07-17T00:35:34;8.47;;;4.20;;
13040;SDS011;6587;42.728;23.288;2022-07-17T00:38:01;7.17;;;3.90;;
13040;SDS011;6587;42.728;23.288;2022-07-17T00:40:28;6.83;;;4.00;;
13040;SDS011;6587;42.728;23.288;2022-07-17T00:42:55;3.90;;;3.50;;
13040;SDS011;6587;42.728;23.288;2022-07-17T00:45:22;4.10;;;3.63;;
13040;SDS011;6587;42.728;23.288;2022-07-17T00:47:52;4.28;;;3.88;;
13040;SDS011;6587;42.728;23.288;2022-07-17T00:50:21;3.63;;;3.33;;
13040;SDS011;6587;42.728;23.288;2022-07-17T00:52:48;4.10;;;3.70;;
13040;SDS011;6587;42.728;23.288;2022-07-17T00:55:15;4.20;;;3.80;;
13040;SDS011;6587;42.728;23.288;2022-07-17T00:57:43;3.95;;;3.63;;
13040;SDS011;6587;42.728;23.288;2022-07-17T01:00:13;5.63;;;3.50;;
13040;SDS011;6587;42.728;23.288;2022-07-17T01:02:40;4.25;;;3.47;;
13040;SDS011;6587;42.728;23.288;2022-07-17T01:05:12;5.77;;;4.00;;
13040;SDS011;6587;42.728;23.288;2022-07-17T01:07:40;4.03;;;3.63;;
13040;SDS011;6587;42.728;23.288;2022-07-17T01:10:07;7.00;;;3.63;;
13040;SDS011;6587;42.728;23.288;2022-07-17T01:12:35;4.20;;;3.80;;
13040;SDS011;6587;42.728;23.288;2022-07-17T01:15:03;7.07;;;3.80;;
13040;SDS011;6587;42.728;23.288;2022-07-17T01:17:31;4.20;;;3.80;;
13040;SDS011;6587;42.728;23.288;2022-07-17T01:19:58;4.78;;;3.50;;
13040;SDS011;6587;42.728;23.288;2022-07-17T01:22:29;5.40;;;3.63;;
13040;SDS011;6587;42.728;23.288;2022-07-17T01:24:56;3.70;;;3.40;;
13040;SDS011;6587;42.728;23.288;2022-07-17T01:27:23;4.10;;;3.60;;
13040;SDS011;6587;42.728;23.288;2022-07-17T01:29:50;4.03;;;3.47;;
13040;SDS011;6587;42.728;23.288;2022-07-17T01:32:16;6.65;;;3.95;;
13040;SDS011;6587;42.728;23.288;2022-07-17T01:34:43;7.30;;;4.05;;
13040;SDS011;6587;42.728;23.288;2022-07-17T01:37:10;4.70;;;3.73;;
13040;SDS011;6587;42.728;23.288;2022-07-17T01:39:39;4.57;;;3.87;;
13040;SDS011;6587;42.728;23.288;2022-07-17T01:42:21;4.38;;;3.50;;
13040;SDS011;6587;42.728;23.288;2022-07-17T01:44:49;4.20;;;3.42;;
13040;SDS011;6587;42.728;23.288;2022-07-17T01:47:17;4.43;;;3.28;;
13040;SDS011;6587;42.728;23.288;2022-07-17T01:49:44;5.93;;;3.60;;
13040;SDS011;6587;42.728;23.288;2022-07-17T01:52:11;4.55;;;3.78;;
13040;SDS011;6587;42.728;23.288;2022-07-17T01:54:40;4.87;;;4.00;;
13040;SDS011;6587;42.728;23.288;2022-07-17T01:57:07;4.13;;;3.45;;
13040;SDS011;6587;42.728;23.288;2022-07-17T01:59:35;8.27;;;4.20;;
13040;SDS011;6587;42.728;23.288;2022-07-17T02:02:03;4.90;;;4.13;;
13040;SDS011;6587;42.728;23.288;2022-07-17T02:04:31;3.90;;;3.60;;
13040;SDS011;6587;42.728;23.288;2022-07-17T02:06:59;4.33;;;3.93;;
13040;SDS011;6587;42.728;23.288;2022-07-17T02:09:26;5.73;;;3.53;;
13040;SDS011;6587;42.728;23.288;2022-07-17T02:11:54;5.80;;;3.60;;
13040;SDS011;6587;42.728;23.288;2022-07-17T02:14:21;4.47;;;3.37;;
13040;SDS011;6587;42.728;23.288;2022-07-17T02:16:50;6.63;;;3.90;;
13040;SDS011;6587;42.728;23.288;2022-07-17T02:19:17;4.27;;;3.73;;
13040;SDS011;6587;42.728;23.288;2022-07-17T02:21:44;5.03;;;3.43;;
13040;SDS011;6587;42.728;23.288;2022-07-17T02:24:11;5.00;;;3.57;;
13040;SDS011;6587;42.728;23.288;2022-07-17T02:26:37;4.93;;;3.37;;
13040;SDS011;6587;42.728;23.288;2022-07-17T02:29:06;4.60;;;3.90;;
13040;SDS011;6587;42.728;23.288;2022-07-17T02:31:33;4.27;;;3.80;;
13040;SDS011;6587;42.728;23.288;2022-07-17T02:34:00;4.77;;;3.80;;
13040;SDS011;6587;42.728;23.288;2022-07-17T02:36:27;4.87;;;3.70;;
13040;SDS011;6587;42.728;23.288;2022-07-17T02:38:54;4.73;;;3.70;;
13040;SDS011;6587;42.728;23.288;2022-07-17T02:41:21;5.60;;;4.05;;
13040;SDS011;6587;42.728;23.288;2022-07-17T02:43:48;4.60;;;3.63;;
13040;SDS011;6587;42.728;23.288;2022-07-17T02:46:16;4.10;;;3.70;;
13040;SDS011;6587;42.728;23.288;2022-07-17T02:48:43;6.73;;;3.90;;
13040;SDS011;6587;42.728;23.288;2022-07-17T02:51:11;5.87;;;3.93;;
13040;SDS011;6587;42.728;23.288;2022-07-17T02:53:38;4.97;;;3.73;;
13040;SDS011;6587;42.728;23.288;2022-07-17T02:56:05;4.27;;;3.63;;
13040;SDS011;6587;42.728;23.288;2022-07-17T02:58:33;6.00;;;3.50;;
13040;SDS011;6587;42.728;23.288;2022-07-17T03:01:00;7.20;;;4.13;;
13040;SDS011;6587;42.728;23.288;2022-07-17T03:03:28;5.63;;;3.83;;
13040;SDS011;6587;42.728;23.288;2022-07-17T03:05:55;5.43;;;3.80;;
13040;SDS011;6587;42.728;23.288;2022-07-17T03:08:22;5.80;;;3.60;;
13040;SDS011;6587;42.728;23.288;2022-07-17T03:10:48;4.87;;;3.83;;
13040;SDS011;6587;42.728;23.288;2022-07-17T03:13:15;4.70;;;3.57;;
13040;SDS011;6587;42.728;23.288;2022-07-17T03:15:42;4.17;;;3.77;;
13040;SDS011;6587;42.728;23.288;2022-07-17T03:18:09;5.57;;;3.40;;
13040;SDS011;6587;42.728;23.288;2022-07-17T03:20:37;5.33;;;3.60;;
13040;SDS011;6587;42.728;23.288;2022-07-17T03:23:04;4.97;;;3.50;;
13040;SDS011;6587;42.728;23.288;2022-07-17T03:25:31;5.77;;;3.80;;
13040;SDS011;6587;42.728;23.288;2022-07-17T03:27:58;5.23;;;4.17;;
13040;SDS011;6587;42.728;23.288;2022-07-17T03:30:25;4.30;;;3.90;;
13040;SDS011;6587;42.728;23.288;2022-07-17T03:32:52;7.20;;;3.80;;
13040;SDS011;6587;42.728;23.288;2022-07-17T03:35:19;5.83;;;4.07;;
13040;SDS011;6587;42.728;23.288;2022-07-17T03:37:47;4.60;;;3.93;;
13040;SDS011;6587;42.728;23.288;2022-07-17T03:40:14;5.07;;;3.93;;
13040;SDS011;6587;42.728;23.288;2022-07-17T03:42:42;4.80;;;4.30;;
13040;SDS011;6587;42.728;23.288;2022-07-17T03:45:09;5.47;;;4.13;;
13040;SDS011;6587;42.728;23.288;2022-07-17T03:47:36;5.07;;;4.00;;
13040;SDS011;6587;42.728;23.288;2022-07-17T03:50:04;4.87;;;4.20;;
13040;SDS011;6587;42.728;23.288;2022-07-17T03:52:31;10.33;;;4.07;;
13040;SDS011;6587;42.728;23.288;2022-07-17T03:55:00;7.00;;;4.30;;
13040;SDS011;6587;42.728;23.288;2022-07-17T03:57:27;5.13;;;4.20;;
13040;SDS011;6587;42.728;23.288;2022-07-17T03:59:53;5.47;;;4.20;;
13040;SDS011;6587;42.728;23.288;2022-07-17T04:02:20;5.33;;;4.10;;
13040;SDS011;6587;42.728;23.288;2022-07-17T04:04:48;5.97;;;3.67;;
13040;SDS011;6587;42.728;23.288;2022-07-17T04:07:14;6.30;;;4.07;;
13040;SDS011;6587;42.728;23.288;2022-07-17T04:09:54;4.70;;;3.63;;
13040;SDS011;6587;42.728;23.288;2022-07-17T04:12:24;4.10;;;3.67;;
13040;SDS011;6587;42.728;23.288;2022-07-17T04:14:51;5.17;;;3.90;;
13040;SDS011;6587;42.728;23.288;2022-07-17T04:17:18;8.57;;;4.07;;
13040;SDS011;6587;42.728;23.288;2022-07-17T04:19:45;6.77;;;3.77;;
13040;SDS011;6587;42.728;23.288;2022-07-17T04:22:12;7.83;;;3.97;;
13040;SDS011;6587;42.728;23.288;2022-07-17T04:24:39;5.57;;;3.83;;
13040;SDS011;6587;42.728;23.288;2022-07-17T04:27:06;5.83;;;3.50;;
13040;SDS011;6587;42.728;23.288;2022-07-17T04:29:35;7.93;;;3.60;;
13040;SDS011;6587;42.728;23.288;2022-07-17T04:32:02;5.90;;;3.90;;
13040;SDS011;6587;42.728;23.288;2022-07-17T04:34:29;4.37;;;3.70;;
13040;SDS011;6587;42.728;23.288;2022-07-17T04:36:57;6.23;;;3.97;;
13040;SDS011;6587;42.728;23.288;2022-07-17T04:39:25;4.97;;;3.70;;
13040;SDS011;6587;42.728;23.288;2022-07-17T04:41:52;7.07;;;3.80;;
13040;SDS011;6587;42.728;23.288;2022-07-17T04:44:18;4.00;;;3.30;;
13040;SDS011;6587;42.728;23.288;2022-07-17T04:46:47;5.07;;;3.37;;
13040;SDS011;6587;42.728;23.288;2022-07-17T04:49:14;5.85;;;3.63;;
13040;SDS011;6587;42.728;23.288;2022-07-17T04:51:41;5.43;;;3.63;;
13040;SDS011;6587;42.728;23.288;2022-07-17T04:54:08;10.90;;;4.30;;
13040;SDS011;6587;42.728;23.288;2022-07-17T04:56:34;4.73;;;3.50;;
13040;SDS011;6587;42.728;23.288;2022-07-17T04:59:01;7.90;;;4.30;;
13040;SDS011;6587;42.728;23.288;2022-07-17T05:01:29;7.23;;;5.07;;
13040;SDS011;6587;42.728;23.288;2022-07-17T05:03:57;6.40;;;4.37;;
13040;SDS011;6587;42.728;23.288;2022-07-17T05:06:24;9.25;;;3.97;;
13040;SDS011;6587;42.728;23.288;2022-07-17T05:08:51;5.30;;;3.87;;
13040;SDS011;6587;42.728;23.288;2022-07-17T05:11:18;6.10;;;4.13;;
13040;SDS011;6587;42.728;23.288;2022-07-17T05:13:45;4.67;;;4.03;;
13040;SDS011;6587;42.728;23.288;2022-07-17T05:16:12;6.80;;;4.40;;
13040;SDS011;6587;42.728;23.288;2022-07-17T05:18:39;4.97;;;3.87;;
13040;SDS011;6587;42.728;23.288;2022-07-17T05:21:07;6.60;;;4.32;;
13040;SDS011;6587;42.728;23.288;2022-07-17T05:23:34;7.28;;;4.22;;
13040;SDS011;6587;42.728;23.288;2022-07-17T05:26:01;8.57;;;4.80;;
13040;SDS011;6587;42.728;23.288;2022-07-17T05:28:28;16.05;;;4.68;;
13040;SDS011;6587;42.728;23.288;2022-07-17T05:30:55;8.48;;;4.28;;
13040;SDS011;6587;42.728;23.288;2022-07-17T05:33:22;4.20;;;3.80;;
13040;SDS011;6587;42.728;23.288;2022-07-17T05:35:49;4.07;;;3.67;;
13040;SDS011;6587;42.728;23.288;2022-07-17T05:38:17;5.40;;;3.90;;
13040;SDS011;6587;42.728;23.288;2022-07-17T05:40:44;4.13;;;3.67;;
13040;SDS011;6587;42.728;23.288;2022-07-17T05:43:11;4.50;;;3.78;;
13040;SDS011;6587;42.728;23.288;2022-07-17T05:45:38;4.25;;;3.85;;
13040;SDS011;6587;42.728;23.288;2022-07-17T05:48:05;5.38;;;3.53;;
13040;SDS011;6587;42.728;23.288;2022-07-17T05:50:33;4.40;;;3.53;;
13040;SDS011;6587;42.728;23.288;2022-07-17T05:53:00;5.18;;;3.70;;
13040;SDS011;6587;42.728;23.288;2022-07-17T05:55:28;5.35;;;3.63;;
13040;SDS011;6587;42.728;23.288;2022-07-17T05:57:55;6.85;;;3.80;;
13040;SDS011;6587;42.728;23.288;2022-07-17T06:00:22;5.85;;;3.92;;
13040;SDS011;6587;42.728;23.288;2022-07-17T06:02:49;9.40;;;6.25;;
13040;SDS011;6587;42.728;23.288;2022-07-17T06:05:16;4.35;;;3.67;;
13040;SDS011;6587;42.728;23.288;2022-07-17T06:07:42;4.55;;;3.80;;
13040;SDS011;6587;42.728;23.288;2022-07-17T06:10:09;8.23;;;3.78;;
13040;SDS011;6587;42.728;23.288;2022-07-17T06:12:37;6.80;;;3.70;;
13040;SDS011;6587;42.728;23.288;2022-07-17T06:15:05;4.63;;;3.50;;
13040;SDS011;6587;42.728;23.288;2022-07-17T06:17:32;4.13;;;3.20;;
13040;SDS011;6587;42.728;23.288;2022-07-17T06:19:59;4.38;;;3.80;;
13040;SDS011;6587;42.728;23.288;2022-07-17T06:22:26;5.72;;;3.92;;
13040;SDS011;6587;42.728;23.288;2022-07-17T06:24:53;4.80;;;3.30;;
13040;SDS011;6587;42.728;23.288;2022-07-17T06:27:20;6.47;;;3.40;;
13040;SDS011;6587;42.728;23.288;2022-07-17T06:29:48;6.47;;;3.33;;
13040;SDS011;6587;42.728;23.288;2022-07-17T06:32:15;5.25;;;3.80;;
13040;SDS011;6587;42.728;23.288;2022-07-17T06:34:42;7.15;;;5.57;;
13040;SDS011;6587;42.728;23.288;2022-07-17T06:37:09;5.03;;;3.25;;
13040;SDS011;6587;42.728;23.288;2022-07-17T06:39:36;4.97;;;3.47;;
13040;SDS011;6587;42.728;23.288;2022-07-17T06:42:03;7.60;;;3.70;;
13040;SDS011;6587;42.728;23.288;2022-07-17T06:44:30;4.93;;;3.60;;
13040;SDS011;6587;42.728;23.288;2022-07-17T06:46:58;5.10;;;3.58;;
13040;SDS011;6587;42.728;23.288;2022-07-17T06:49:25;5.45;;;3.60;;
13040;SDS011;6587;42.728;23.288;2022-07-17T06:51:52;4.90;;;3.05;;
13040;SDS011;6587;42.728;23.288;2022-07-17T06:54:19;5.85;;;3.40;;
13040;SDS011;6587;42.728;23.288;2022-07-17T06:56:49;3.80;;;3.50;;
13040;SDS011;6587;42.728;23.288;2022-07-17T06:59:16;4.65;;;3.75;;
13040;SDS011;6587;42.728;23.288;2022-07-17T07:01:43;4.03;;;3.38;;
13040;SDS011;6587;42.728;23.288;2022-07-17T07:04:12;5.38;;;3.60;;
13040;SDS011;6587;42.728;23.288;2022-07-17T07:06:40;5.03;;;3.65;;
13040;SDS011;6587;42.728;23.288;2022-07-17T07:09:07;3.53;;;3.22;;
13040;SDS011;6587;42.728;23.288;2022-07-17T07:11:34;6.20;;;3.55;;
13040;SDS011;6587;42.728;23.288;2022-07-17T07:14:02;8.32;;;4.00;;
13040;SDS011;6587;42.728;23.288;2022-07-17T07:16:29;4.80;;;3.35;;
13040;SDS011;6587;42.728;23.288;2022-07-17T07:18:56;4.70;;;3.60;;
13040;SDS011;6587;42.728;23.288;2022-07-17T07:21:24;4.18;;;3.30;;
13040;SDS011;6587;42.728;23.288;2022-07-17T07:23:52;5.65;;;3.53;;
13040;SDS011;6587;42.728;23.288;2022-07-17T07:26:18;4.35;;;3.22;;
13040;SDS011;6587;42.728;23.288;2022-07-17T07:28:45;3.80;;;3.45;;
13040;SDS011;6587;42.728;23.288;2022-07-17T07:31:12;9.43;;;4.20;;
13040;SDS011;6587;42.728;23.288;2022-07-17T07:33:42;3.95;;;3.55;;
13040;SDS011;6587;42.728;23.288;2022-07-17T07:36:09;4.35;;;3.33;;
13040;SDS011;6587;42.728;23.288;2022-07-17T07:38:37;5.07;;;3.72;;
13040;SDS011;6587;42.728;23.288;2022-07-17T07:41:04;5.82;;;3.30;;
13040;SDS011;6587;42.728;23.288;2022-07-17T07:43:31;4.90;;;3.85;;
13040;SDS011;6587;42.728;23.288;2022-07-17T07:45:58;8.90;;;3.92;;
13040;SDS011;6587;42.728;23.288;2022-07-17T07:48:25;4.32;;;3.70;;
13040;SDS011;6587;42.728;23.288;2022-07-17T07:50:52;5.70;;;3.55;;
13040;SDS011;6587;42.728;23.288;2022-07-17T07:53:19;5.47;;;3.30;;
13040;SDS011;6587;42.728;23.288;2022-07-17T07:55:47;3.60;;;3.30;;
13040;SDS011;6587;42.728;23.288;2022-07-17T07:58:14;4.22;;;3.25;;
13040;SDS011;6587;42.728;23.288;2022-07-17T08:00:42;5.65;;;3.58;;
13040;SDS011;6587;42.728;23.288;2022-07-17T08:03:11;3.72;;;3.33;;
13040;SDS011;6587;42.728;23.288;2022-07-17T08:05:38;3.58;;;3.22;;
13040;SDS011;6587;42.728;23.288;2022-07-17T08:08:05;4.72;;;3.88;;
13040;SDS011;6587;42.728;23.288;2022-07-17T08:10:32;4.90;;;3.47;;
13040;SDS011;6587;42.728;23.288;2022-07-17T08:13:01;3.92;;;3.55;;
13040;SDS011;6587;42.728;23.288;2022-07-17T08:15:27;7.28;;;3.58;;
13040;SDS011;6587;42.728;23.288;2022-07-17T08:17:55;4.63;;;3.60;;
13040;SDS011;6587;42.728;23.288;2022-07-17T08:20:22;3.60;;;3.30;;
13040;SDS011;6587;42.728;23.288;2022-07-17T08:22:49;4.25;;;3.45;;
13040;SDS011;6587;42.728;23.288;2022-07-17T08:25:16;4.03;;;3.50;;
13040;SDS011;6587;42.728;23.288;2022-07-17T08:27:43;3.45;;;3.15;;
13040;SDS011;6587;42.728;23.288;2022-07-17T08:30:12;4.78;;;3.55;;
13040;SDS011;6587;42.728;23.288;2022-07-17T08:32:41;5.32;;;3.40;;
13040;SDS011;6587;42.728;23.288;2022-07-17T08:35:08;8.15;;;3.85;;
13040;SDS011;6587;42.728;23.288;2022-07-17T08:37:42;5.60;;;4.05;;
13040;SDS011;6587;42.728;23.288;2022-07-17T08:40:16;6.57;;;3.90;;
13040;SDS011;6587;42.728;23.288;2022-07-17T08:42:44;4.88;;;3.45;;
13040;SDS011;6587;42.728;23.288;2022-07-17T08:45:13;4.32;;;3.90;;
13040;SDS011;6587;42.728;23.288;2022-07-17T08:47:40;6.72;;;3.60;;
13040;SDS011;6587;42.728;23.288;2022-07-17T08:50:07;4.90;;;3.78;;
13040;SDS011;6587;42.728;23.288;2022-07-17T08:52:35;6.05;;;3.55;;
13040;SDS011;6587;42.728;23.288;2022-07-17T08:55:03;4.30;;;3.60;;
13040;SDS011;6587;42.728;23.288;2022-07-17T08:57:36;4.82;;;3.35;;
13040;SDS011;6587;42.728;23.288;2022-07-17T09:00:05;3.97;;;3.20;;
13040;SDS011;6587;42.728;23.288;2022-07-17T09:02:34;6.60;;;3.40;;
13040;SDS011;6587;42.728;23.288;2022-07-17T09:05:01;8.05;;;3.30;;
13040;SDS011;6587;42.728;23.288;2022-07-17T09:07:28;3.88;;;3.20;;
13040;SDS011;6587;42.728;23.288;2022-07-17T09:09:56;4.45;;;2.85;;
13040;SDS011;6587;42.728;23.288;2022-07-17T09:12:24;4.32;;;3.25;;
13040;SDS011;6587;42.728;23.288;2022-07-17T09:14:52;4.00;;;3.60;;
13040;SDS011;6587;42.728;23.288;2022-07-17T09:17:19;5.38;;;3.85;;
13040;SDS011;6587;42.728;23.288;2022-07-17T09:19:49;4.30;;;3.90;;
13040;SDS011;6587;42.728;23.288;2022-07-17T09:22:17;3.50;;;3.20;;
13040;SDS011;6587;42.728;23.288;2022-07-17T09:24:46;3.72;;;3.38;;
13040;SDS011;6587;42.728;23.288;2022-07-17T09:27:15;3.60;;;3.30;;
13040;SDS011;6587;42.728;23.288;2022-07-17T09:29:55;4.50;;;3.50;;
13040;SDS011;6587;42.728;23.288;2022-07-17T09:32:24;5.70;;;3.20;;
13040;SDS011;6587;42.728;23.288;2022-07-17T09:34:54;5.10;;;3.63;;
13040;SDS011;6587;42.728;23.288;2022-07-17T09:37:22;5.13;;;3.30;;
13040;SDS011;6587;42.728;23.288;2022-07-17T09:39:49;4.85;;;3.42;;
13040;SDS011;6587;42.728;23.288;2022-07-17T09:42:23;6.20;;;3.45;;
13040;SDS011;6587;42.728;23.288;2022-07-17T09:44:55;4.15;;;3.40;;
13040;SDS011;6587;42.728;23.288;2022-07-17T09:47:23;4.97;;;2.90;;
13040;SDS011;6587;42.728;23.288;2022-07-17T09:49:51;4.60;;;3.58;;
13040;SDS011;6587;42.728;23.288;2022-07-17T09:52:21;6.90;;;3.28;;
13040;SDS011;6587;42.728;23.288;2022-07-17T09:54:51;6.78;;;3.38;;
13040;SDS011;6587;42.728;23.288;2022-07-17T09:57:20;4.15;;;3.00;;
13040;SDS011;6587;42.728;23.288;2022-07-17T09:59:52;3.10;;;2.80;;
13040;SDS011;6587;42.728;23.288;2022-07-17T10:02:21;3.33;;;2.90;;
13040;SDS011;6587;42.728;23.288;2022-07-17T10:04:48;3.72;;;3.15;;
13040;SDS011;6587;42.728;23.288;2022-07-17T10:07:16;3.33;;;3.08;;
13040;SDS011;6587;42.728;23.288;2022-07-17T10:09:44;5.25;;;3.28;;
13040;SDS011;6587;42.728;23.288;2022-07-17T10:12:11;3.70;;;3.13;;
13040;SDS011;6587;42.728;23.288;2022-07-17T10:14:40;3.55;;;3.25;;
13040;SDS011;6587;42.728;23.288;2022-07-17T10:17:07;3.10;;;2.80;;
13040;SDS011;6587;42.728;23.288;2022-07-17T10:19:43;6.25;;;3.67;;
13040;SDS011;6587;42.728;23.288;2022-07-17T10:22:12;5.47;;;3.22;;
13040;SDS011;6587;42.728;23.288;2022-07-17T10:24:46;3.80;;;3.03;;
13040;SDS011;6587;42.728;23.288;2022-07-17T10:27:18;5.05;;;3.10;;
13040;SDS011;6587;42.728;23.288;2022-07-17T10:29:47;3.88;;;3.05;;
13040;SDS011;6587;42.728;23.288;2022-07-17T10:32:24;2.90;;;2.70;;
13040;SDS011;6587;42.728;23.288;2022-07-17T10:34:52;3.90;;;2.95;;
13040;SDS011;6587;42.728;23.288;2022-07-17T10:37:21;4.85;;;2.80;;
13040;SDS011;6587;42.728;23.288;2022-07-17T10:39:58;4.22;;;2.90;;
13040;SDS011;6587;42.728;23.288;2022-07-17T10:42:44;5.40;;;3.63;;
13040;SDS011;6587;42.728;23.288;2022-07-17T10:45:14;4.95;;;3.17;;
13040;SDS011;6587;42.728;23.288;2022-07-17T10:47:43;3.50;;;3.20;;
13040;SDS011;6587;42.728;23.288;2022-07-17T10:50:11;3.30;;;2.95;;
13040;SDS011;6587;42.728;23.288;2022-07-17T10:52:39;3.28;;;2.97;;
13040;SDS011;6587;42.728;23.288;2022-07-17T10:55:18;3.40;;;2.78;;
13040;SDS011;6587;42.728;23.288;2022-07-17T10:57:47;3.78;;;3.00;;
13040;SDS011;6587;42.728;23.288;2022-07-17T11:00:14;4.38;;;2.92;;
13040;SDS011;6587;42.728;23.288;2022-07-17T11:02:42;3.97;;;2.80;;
13040;SDS011;6587;42.728;23.288;2022-07-17T11:05:09;3.45;;;3.13;;
13040;SDS011;6587;42.728;23.288;2022-07-17T11:07:48;6.35;;;3.13;;
13040;SDS011;6587;42.728;23.288;2022-07-17T11:10:17;3.55;;;2.83;;
13040;SDS011;6587;42.728;23.288;2022-07-17T11:12:44;3.00;;;2.67;;
13040;SDS011;6587;42.728;23.288;2022-07-17T11:15:11;3.55;;;3.20;;
13040;SDS011;6587;42.728;23.288;2022-07-17T11:17:38;4.43;;;3.00;;
13040;SDS011;6587;42.728;23.288;2022-07-17T11:20:10;4.80;;;3.10;;
13040;SDS011;6587;42.728;23.288;2022-07-17T11:22:37;3.58;;;3.08;;
13040;SDS011;6587;42.728;23.288;2022-07-17T11:25:05;4.20;;;2.88;;
13040;SDS011;6587;42.728;23.288;2022-07-17T11:27:35;3.88;;;2.83;;
13040;SDS011;6587;42.728;23.288;2022-07-17T11:30:04;4.05;;;3.10;;
13040;SDS011;6587;42.728;23.288;2022-07-17T11:32:32;2.92;;;2.67;;
13040;SDS011;6587;42.728;23.288;2022-07-17T11:34:59;6.45;;;3.03;;
13040;SDS011;6587;42.728;23.288;2022-07-17T11:37:28;3.85;;;3.03;;
13040;SDS011;6587;42.728;23.288;2022-07-17T11:39:56;3.17;;;2.88;;
13040;SDS011;6587;42.728;23.288;2022-07-17T11:42:23;3.35;;;3.00;;
13040;SDS011;6587;42.728;23.288;2022-07-17T11:44:54;3.10;;;2.78;;
13040;SDS011;6587;42.728;23.288;2022-07-17T11:47:22;3.28;;;3.05;;
13040;SDS011;6587;42.728;23.288;2022-07-17T11:49:51;5.13;;;3.45;;
13040;SDS011;6587;42.728;23.288;2022-07-17T11:52:38;4.50;;;2.90;;
13040;SDS011;6587;42.728;23.288;2022-07-17T11:55:07;3.25;;;2.95;;
13040;SDS011;6587;42.728;23.288;2022-07-17T11:57:40;4.20;;;2.70;;
13040;SDS011;6587;42.728;23.288;2022-07-17T12:00:11;3.65;;;2.90;;
13040;SDS011;6587;42.728;23.288;2022-07-17T12:02:39;4.50;;;2.95;;
13040;SDS011;6587;42.728;23.288;2022-07-17T12:05:06;5.90;;;3.10;;
13040;SDS011;6587;42.728;23.288;2022-07-17T12:07:43;3.65;;;3.35;;
13040;SDS011;6587;42.728;23.288;2022-07-17T12:10:12;3.90;;;2.80;;
13040;SDS011;6587;42.728;23.288;2022-07-17T12:12:50;3.85;;;3.00;;
13040;SDS011;6587;42.728;23.288;2022-07-17T12:15:20;3.60;;;2.83;;
13040;SDS011;6587;42.728;23.288;2022-07-17T12:17:47;3.38;;;2.78;;
13040;SDS011;6587;42.728;23.288;2022-07-17T12:20:14;4.10;;;2.97;;
13040;SDS011;6587;42.728;23.288;2022-07-17T12:22:42;5.05;;;3.17;;
13040;SDS011;6587;42.728;23.288;2022-07-17T12:25:20;3.15;;;2.88;;
13040;SDS011;6587;42.728;23.288;2022-07-17T12:27:48;3.53;;;3.22;;
13040;SDS011;6587;42.728;23.288;2022-07-17T12:30:15;3.40;;;3.10;;
13040;SDS011;6587;42.728;23.288;2022-07-17T12:32:44;3.75;;;3.33;;
13040;SDS011;6587;42.728;23.288;2022-07-17T12:35:12;5.00;;;3.38;;
13040;SDS011;6587;42.728;23.288;2022-07-17T12:37:39;5.57;;;3.88;;
13040;SDS011;6587;42.728;23.288;2022-07-17T12:40:07;3.40;;;2.95;;
13040;SDS011;6587;42.728;23.288;2022-07-17T12:42:34;4.47;;;2.97;;
13040;SDS011;6587;42.728;23.288;2022-07-17T12:45:01;4.05;;;3.55;;
13040;SDS011;6587;42.728;23.288;2022-07-17T12:47:28;5.15;;;3.60;;
13040;SDS011;6587;42.728;23.288;2022-07-17T12:49:56;6.85;;;4.70;;
13040;SDS011;6587;42.728;23.288;2022-07-17T12:52:23;6.50;;;3.70;;
13040;SDS011;6587;42.728;23.288;2022-07-17T12:54:50;5.57;;;3.53;;
13040;SDS011;6587;42.728;23.288;2022-07-17T12:57:17;3.97;;;3.40;;
13040;SDS011;6587;42.728;23.288;2022-07-17T12:59:44;3.88;;;3.30;;
13040;SDS011;6587;42.728;23.288;2022-07-17T13:02:11;4.20;;;3.40;;
13040;SDS011;6587;42.728;23.288;2022-07-17T13:04:38;4.65;;;3.33;;
13040;SDS011;6587;42.728;23.288;2022-07-17T13:07:06;3.40;;;3.10;;
13040;SDS011;6587;42.728;23.288;2022-07-17T13:09:33;3.50;;;3.20;;
13040;SDS011;6587;42.728;23.288;2022-07-17T13:12:01;4.78;;;3.10;;
13040;SDS011;6587;42.728;23.288;2022-07-17T13:14:29;4.55;;;3.20;;
13040;SDS011;6587;42.728;23.288;2022-07-17T13:16:55;3.58;;;3.28;;
13040;SDS011;6587;42.728;23.288;2022-07-17T13:19:23;5.32;;;3.25;;
13040;SDS011;6587;42.728;23.288;2022-07-17T13:21:49;4.78;;;3.30;;
13040;SDS011;6587;42.728;23.288;2022-07-17T13:24:18;4.45;;;3.42;;
13040;SDS011;6587;42.728;23.288;2022-07-17T13:26:45;3.22;;;2.85;;
13040;SDS011;6587;42.728;23.288;2022-07-17T13:29:13;4.15;;;3.03;;
13040;SDS011;6587;42.728;23.288;2022-07-17T13:31:39;5.40;;;3.55;;
13040;SDS011;6587;42.728;23.288;2022-07-17T13:34:06;3.40;;;3.10;;
13040;SDS011;6587;42.728;23.288;2022-07-17T13:36:33;2.92;;;2.72;;
13040;SDS011;6587;42.728;23.288;2022-07-17T13:39:00;3.75;;;3.13;;
13040;SDS011;6587;42.728;23.288;2022-07-17T13:41:28;3.40;;;2.70;;
13040;SDS011;6587;42.728;23.288;2022-07-17T13:43:55;3.70;;;3.00;;
13040;SDS011;6587;42.728;23.288;2022-07-17T13:46:22;4.55;;;3.10;;
13040;SDS011;6587;42.728;23.288;2022-07-17T13:48:49;3.80;;;3.28;;
13040;SDS011;6587;42.728;23.288;2022-07-17T13:51:16;4.03;;;2.97;;
13040;SDS011;6587;42.728;23.288;2022-07-17T13:53:43;3.38;;;2.83;;
13040;SDS011;6587;42.728;23.288;2022-07-17T13:56:10;3.88;;;2.85;;
13040;SDS011;6587;42.728;23.288;2022-07-17T13:58:38;3.38;;;3.08;;
13040;SDS011;6587;42.728;23.288;2022-07-17T14:01:05;3.50;;;3.20;;
13040;SDS011;6587;42.728;23.288;2022-07-17T14:03:32;3.28;;;2.97;;
13040;SDS011;6587;42.728;23.288;2022-07-17T14:05:59;3.97;;;3.15;;
13040;SDS011;6587;42.728;23.288;2022-07-17T14:08:26;3.53;;;3.03;;
13040;SDS011;6587;42.728;23.288;2022-07-17T14:10:53;3.83;;;3.20;;
13040;SDS011;6587;42.728;23.288;2022-07-17T14:13:20;3.58;;;2.88;;
13040;SDS011;6587;42.728;23.288;2022-07-17T14:15:48;4.10;;;3.28;;
13040;SDS011;6587;42.728;23.288;2022-07-17T14:18:15;3.50;;;3.20;;
13040;SDS011;6587;42.728;23.288;2022-07-17T14:20:41;3.47;;;2.83;;
13040;SDS011;6587;42.728;23.288;2022-07-17T14:23:09;4.38;;;3.30;;
13040;SDS011;6587;42.728;23.288;2022-07-17T14:25:36;5.38;;;3.10;;
13040;SDS011;6587;42.728;23.288;2022-07-17T14:28:03;4.30;;;3.97;;
13040;SDS011;6587;42.728;23.288;2022-07-17T14:30:30;5.43;;;3.65;;
13040;SDS011;6587;42.728;23.288;2022-07-17T14:32:59;3.97;;;3.55;;
13040;SDS011;6587;42.728;23.288;2022-07-17T14:35:26;4.40;;;3.42;;
13040;SDS011;6587;42.728;23.288;2022-07-17T14:37:53;3.72;;;3.42;;
13040;SDS011;6587;42.728;23.288;2022-07-17T14:40:20;5.47;;;3.72;;
13040;SDS011;6587;42.728;23.288;2022-07-17T14:42:47;4.22;;;3.80;;
13040;SDS011;6587;42.728;23.288;2022-07-17T14:45:13;4.75;;;3.80;;
13040;SDS011;6587;42.728;23.288;2022-07-17T14:47:40;3.67;;;3.38;;
13040;SDS011;6587;42.728;23.288;2022-07-17T14:50:09;3.85;;;3.55;;
13040;SDS011;6587;42.728;23.288;2022-07-17T14:52:38;5.15;;;3.80;;